sensor_id;sensor_type;location;lat;lon;timestamp;temperature;humidity
11501;DHT22;5807;51.606;7.624;2022-09-12T00:01:20;11.70;99.90
11501;DHT22;5807;51.606;7.624;2022-09-12T00:03:51;11.60;99.90
11501;DHT22;5807;51.606;7.624;2022-09-12T00:06:19;11.70;99.90
11501;DHT22;5807;51.606;7.624;2022-09-12T00:08:46;11.60;99.90
11501;DHT22;5807;51.606;7.624;2022-09-12T00:11:13;11.60;99.90
11501;DHT22;5807;51.606;7.624;2022-09-12T00:13:41;11.60;99.90
11501;DHT22;5807;51.606;7.624;2022-09-12T00:16:14;11.60;99.90
11501;DHT22;5807;51.606;7.624;2022-09-12T00:18:41;11.50;99.90
11501;DHT22;5807;51.606;7.624;2022-09-12T00:23:36;11.50;99.90
11501;DHT22;5807;51.606;7.624;2022-09-12T00:26:04;11.40;99.90
11501;DHT22;5807;51.606;7.624;2022-09-12T00:28:32;11.40;99.90
11501;DHT22;5807;51.606;7.624;2022-09-12T00:31:02;11.40;99.90
11501;DHT22;5807;51.606;7.624;2022-09-12T00:33:29;11.90;99.90
11501;DHT22;5807;51.606;7.624;2022-09-12T00:35:56;11.40;99.90
11501;DHT22;5807;51.606;7.624;2022-09-12T00:40:51;11.40;99.90
11501;DHT22;5807;51.606;7.624;2022-09-12T00:43:35;11.40;99.90
11501;DHT22;5807;51.606;7.624;2022-09-12T00:46:06;11.40;99.90
11501;DHT22;5807;51.606;7.624;2022-09-12T00:48:39;11.30;99.90
11501;DHT22;5807;51.606;7.624;2022-09-12T00:51:07;11.20;99.90
11501;DHT22;5807;51.606;7.624;2022-09-12T00:53:37;11.20;99.90
11501;DHT22;5807;51.606;7.624;2022-09-12T00:56:04;11.20;99.90
11501;DHT22;5807;51.606;7.624;2022-09-12T00:58:35;11.20;99.90
11501;DHT22;5807;51.606;7.624;2022-09-12T01:01:04;11.20;99.90
11501;DHT22;5807;51.606;7.624;2022-09-12T01:03:31;11.10;99.90
11501;DHT22;5807;51.606;7.624;2022-09-12T01:06:02;11.10;99.90
11501;DHT22;5807;51.606;7.624;2022-09-12T01:08:46;11.10;99.90
11501;DHT22;5807;51.606;7.624;2022-09-12T01:11:15;11.10;99.90
11501;DHT22;5807;51.606;7.624;2022-09-12T01:13:43;11.10;99.90
11501;DHT22;5807;51.606;7.624;2022-09-12T01:16:10;11.10;99.90
11501;DHT22;5807;51.606;7.624;2022-09-12T01:18:47;11.10;99.90
11501;DHT22;5807;51.606;7.624;2022-09-12T01:21:28;11.10;99.90
11501;DHT22;5807;51.606;7.624;2022-09-12T01:27:39;11.00;99.90
11501;DHT22;5807;51.606;7.624;2022-09-12T01:30:21;11.10;99.90
11501;DHT22;5807;51.606;7.624;2022-09-12T01:33:11;11.20;99.90
11501;DHT22;5807;51.606;7.624;2022-09-12T01:35:45;11.20;99.90
11501;DHT22;5807;51.606;7.624;2022-09-12T01:38:24;11.20;99.90
11501;DHT22;5807;51.606;7.624;2022-09-12T01:40:58;11.30;99.90
11501;DHT22;5807;51.606;7.624;2022-09-12T01:43:31;11.30;99.90
11501;DHT22;5807;51.606;7.624;2022-09-12T01:46:06;11.30;99.90
11501;DHT22;5807;51.606;7.624;2022-09-12T01:48:37;11.20;99.90
11501;DHT22;5807;51.606;7.624;2022-09-12T01:51:10;11.20;99.90
11501;DHT22;5807;51.606;7.624;2022-09-12T01:53:43;11.10;99.90
11501;DHT22;5807;51.606;7.624;2022-09-12T01:56:14;11.00;99.90
11501;DHT22;5807;51.606;7.624;2022-09-12T01:58:49;10.90;99.90
11501;DHT22;5807;51.606;7.624;2022-09-12T02:01:20;10.90;99.90
11501;DHT22;5807;51.606;7.624;2022-09-12T02:03:53;10.90;99.90
11501;DHT22;5807;51.606;7.624;2022-09-12T02:06:24;10.80;99.90
11501;DHT22;5807;51.606;7.624;2022-09-12T02:08:53;10.80;99.90
11501;DHT22;5807;51.606;7.624;2022-09-12T02:11:23;10.80;99.90
11501;DHT22;5807;51.606;7.624;2022-09-12T02:13:54;10.80;99.90
11501;DHT22;5807;51.606;7.624;2022-09-12T02:16:29;10.80;99.90
11501;DHT22;5807;51.606;7.624;2022-09-12T02:18:59;10.60;99.90
11501;DHT22;5807;51.606;7.624;2022-09-12T02:21:29;10.60;99.90
11501;DHT22;5807;51.606;7.624;2022-09-12T02:23:58;10.70;99.90
11501;DHT22;5807;51.606;7.624;2022-09-12T02:26:32;10.60;99.90
11501;DHT22;5807;51.606;7.624;2022-09-12T02:29:01;10.60;99.90
11501;DHT22;5807;51.606;7.624;2022-09-12T02:31:34;10.50;99.90
11501;DHT22;5807;51.606;7.624;2022-09-12T02:34:21;10.50;99.90
11501;DHT22;5807;51.606;7.624;2022-09-12T02:37:00;10.50;99.90
11501;DHT22;5807;51.606;7.624;2022-09-12T02:39:28;10.50;99.90
11501;DHT22;5807;51.606;7.624;2022-09-12T02:41:57;10.50;99.90
11501;DHT22;5807;51.606;7.624;2022-09-12T02:44:26;10.40;99.90
11501;DHT22;5807;51.606;7.624;2022-09-12T02:46:58;10.40;99.90
11501;DHT22;5807;51.606;7.624;2022-09-12T02:49:26;10.40;99.90
11501;DHT22;5807;51.606;7.624;2022-09-12T02:51:53;10.30;99.90
11501;DHT22;5807;51.606;7.624;2022-09-12T02:54:20;10.30;99.90
11501;DHT22;5807;51.606;7.624;2022-09-12T02:56:47;10.40;99.90
11501;DHT22;5807;51.606;7.624;2022-09-12T02:59:16;10.30;99.90
11501;DHT22;5807;51.606;7.624;2022-09-12T03:12:17;10.40;99.90
11501;DHT22;5807;51.606;7.624;2022-09-12T03:17:53;10.40;99.90
11501;DHT22;5807;51.606;7.624;2022-09-12T03:20:31;10.40;99.90
11501;DHT22;5807;51.606;7.624;2022-09-12T03:23:05;10.40;99.90
11501;DHT22;5807;51.606;7.624;2022-09-12T03:25:37;10.40;99.90
11501;DHT22;5807;51.606;7.624;2022-09-12T03:28:09;10.40;99.90
11501;DHT22;5807;51.606;7.624;2022-09-12T03:30:38;10.40;99.90
11501;DHT22;5807;51.606;7.624;2022-09-12T03:33:05;10.40;99.90
11501;DHT22;5807;51.606;7.624;2022-09-12T03:35:32;10.00;99.90
11501;DHT22;5807;51.606;7.624;2022-09-12T03:40:26;10.40;99.90
11501;DHT22;5807;51.606;7.624;2022-09-12T03:42:53;11.60;99.90
11501;DHT22;5807;51.606;7.624;2022-09-12T03:45:24;10.60;99.90
11501;DHT22;5807;51.606;7.624;2022-09-12T03:47:51;10.40;99.90
11501;DHT22;5807;51.606;7.624;2022-09-12T03:50:17;10.40;99.90
11501;DHT22;5807;51.606;7.624;2022-09-12T03:52:44;10.40;99.90
11501;DHT22;5807;51.606;7.624;2022-09-12T03:55:11;11.10;99.90
11501;DHT22;5807;51.606;7.624;2022-09-12T03:57:38;12.30;99.90
11501;DHT22;5807;51.606;7.624;2022-09-12T04:00:06;10.30;99.90
11501;DHT22;5807;51.606;7.624;2022-09-12T04:02:35;10.30;99.90
11501;DHT22;5807;51.606;7.624;2022-09-12T04:05:02;10.30;99.90
11501;DHT22;5807;51.606;7.624;2022-09-12T04:07:29;10.30;99.90
11501;DHT22;5807;51.606;7.624;2022-09-12T04:09:56;10.30;99.90
11501;DHT22;5807;51.606;7.624;2022-09-12T04:12:23;10.30;99.90
11501;DHT22;5807;51.606;7.624;2022-09-12T04:14:49;9.80;99.90
11501;DHT22;5807;51.606;7.624;2022-09-12T04:17:16;10.10;99.90
11501;DHT22;5807;51.606;7.624;2022-09-12T04:22:12;10.20;99.90
11501;DHT22;5807;51.606;7.624;2022-09-12T04:24:39;10.20;99.90
11501;DHT22;5807;51.606;7.624;2022-09-12T04:29:33;10.20;99.90
11501;DHT22;5807;51.606;7.624;2022-09-12T04:32:00;10.20;99.90
11501;DHT22;5807;51.606;7.624;2022-09-12T04:34:29;10.10;99.90
11501;DHT22;5807;51.606;7.624;2022-09-12T04:36:57;10.10;99.90
11501;DHT22;5807;51.606;7.624;2022-09-12T04:39:24;10.80;99.90
11501;DHT22;5807;51.606;7.624;2022-09-12T04:41:51;10.10;99.90
11501;DHT22;5807;51.606;7.624;2022-09-12T04:44:18;12.10;99.90
11501;DHT22;5807;51.606;7.624;2022-09-12T04:46:46;10.10;99.90
11501;DHT22;5807;51.606;7.624;2022-09-12T04:49:14;10.10;99.90
11501;DHT22;5807;51.606;7.624;2022-09-12T04:51:43;10.10;99.90
11501;DHT22;5807;51.606;7.624;2022-09-12T04:54:14;10.00;99.90
11501;DHT22;5807;51.606;7.624;2022-09-12T04:56:44;10.00;99.90
11501;DHT22;5807;51.606;7.624;2022-09-12T04:59:12;10.00;99.90
11501;DHT22;5807;51.606;7.624;2022-09-12T05:01:40;10.00;99.90
11501;DHT22;5807;51.606;7.624;2022-09-12T05:04:08;10.00;99.90
11501;DHT22;5807;51.606;7.624;2022-09-12T05:06:36;10.00;99.90
11501;DHT22;5807;51.606;7.624;2022-09-12T05:09:04;10.00;99.90
11501;DHT22;5807;51.606;7.624;2022-09-12T05:11:35;10.10;99.90
11501;DHT22;5807;51.606;7.624;2022-09-12T05:14:02;10.00;99.90
11501;DHT22;5807;51.606;7.624;2022-09-12T05:16:30;10.10;99.90
11501;DHT22;5807;51.606;7.624;2022-09-12T05:18:58;10.10;99.90
11501;DHT22;5807;51.606;7.624;2022-09-12T05:21:25;10.10;99.90
11501;DHT22;5807;51.606;7.624;2022-09-12T05:23:53;10.70;99.90
11501;DHT22;5807;51.606;7.624;2022-09-12T05:26:21;10.10;99.90
11501;DHT22;5807;51.606;7.624;2022-09-12T05:28:50;10.20;99.90
11501;DHT22;5807;51.606;7.624;2022-09-12T05:31:19;10.60;99.90
11501;DHT22;5807;51.606;7.624;2022-09-12T05:33:47;10.60;99.90
11501;DHT22;5807;51.606;7.624;2022-09-12T05:36:15;10.30;99.90
11501;DHT22;5807;51.606;7.624;2022-09-12T05:38:43;10.30;99.90
11501;DHT22;5807;51.606;7.624;2022-09-12T05:41:11;10.40;99.90
11501;DHT22;5807;51.606;7.624;2022-09-12T05:43:40;10.40;99.90
11501;DHT22;5807;51.606;7.624;2022-09-12T05:46:10;11.30;99.90
11501;DHT22;5807;51.606;7.624;2022-09-12T05:48:39;10.60;99.90
11501;DHT22;5807;51.606;7.624;2022-09-12T05:51:08;10.60;99.90
11501;DHT22;5807;51.606;7.624;2022-09-12T05:53:36;10.70;99.90
11501;DHT22;5807;51.606;7.624;2022-09-12T05:56:05;10.80;99.90
11501;DHT22;5807;51.606;7.624;2022-09-12T05:58:33;11.00;99.90
11501;DHT22;5807;51.606;7.624;2022-09-12T06:01:01;11.00;99.90
11501;DHT22;5807;51.606;7.624;2022-09-12T06:06:01;11.30;99.90
11501;DHT22;5807;51.606;7.624;2022-09-12T06:23:16;11.90;99.90
11501;DHT22;5807;51.606;7.624;2022-09-12T06:25:46;12.00;99.90
11501;DHT22;5807;51.606;7.624;2022-09-12T06:28:14;12.10;99.90
11501;DHT22;5807;51.606;7.624;2022-09-12T06:30:41;12.40;99.90
11501;DHT22;5807;51.606;7.624;2022-09-12T06:33:07;12.40;99.90
11501;DHT22;5807;51.606;7.624;2022-09-12T06:40:31;13.70;99.90
11501;DHT22;5807;51.606;7.624;2022-09-12T06:42:58;13.70;99.90
11501;DHT22;5807;51.606;7.624;2022-09-12T06:45:25;14.20;99.90
11501;DHT22;5807;51.606;7.624;2022-09-12T06:47:53;14.90;99.90
11501;DHT22;5807;51.606;7.624;2022-09-12T06:50:20;15.20;99.90
11501;DHT22;5807;51.606;7.624;2022-09-12T06:52:48;15.50;99.90
11501;DHT22;5807;51.606;7.624;2022-09-12T06:55:17;15.50;99.90
11501;DHT22;5807;51.606;7.624;2022-09-12T06:57:43;15.60;99.90
11501;DHT22;5807;51.606;7.624;2022-09-12T07:00:13;16.30;99.90
11501;DHT22;5807;51.606;7.624;2022-09-12T07:02:40;16.30;99.90
11501;DHT22;5807;51.606;7.624;2022-09-12T07:05:08;16.40;99.90
11501;DHT22;5807;51.606;7.624;2022-09-12T07:07:35;16.70;99.90
11501;DHT22;5807;51.606;7.624;2022-09-12T07:10:03;16.90;99.90
11501;DHT22;5807;51.606;7.624;2022-09-12T07:12:32;16.80;99.90
11501;DHT22;5807;51.606;7.624;2022-09-12T07:14:59;16.90;99.90
11501;DHT22;5807;51.606;7.624;2022-09-12T07:17:25;17.40;99.90
11501;DHT22;5807;51.606;7.624;2022-09-12T07:19:52;16.60;99.90
11501;DHT22;5807;51.606;7.624;2022-09-12T07:22:19;16.50;99.90
11501;DHT22;5807;51.606;7.624;2022-09-12T07:24:46;16.50;99.90
11501;DHT22;5807;51.606;7.624;2022-09-12T07:27:13;16.90;99.90
11501;DHT22;5807;51.606;7.624;2022-09-12T07:29:41;16.80;99.90
11501;DHT22;5807;51.606;7.624;2022-09-12T07:32:08;17.50;99.90
11501;DHT22;5807;51.606;7.624;2022-09-12T07:34:36;16.80;99.90
11501;DHT22;5807;51.606;7.624;2022-09-12T07:37:03;17.50;99.90
11501;DHT22;5807;51.606;7.624;2022-09-12T07:39:30;17.20;99.90
11501;DHT22;5807;51.606;7.624;2022-09-12T07:41:57;17.40;99.90
11501;DHT22;5807;51.606;7.624;2022-09-12T07:44:24;17.50;99.90
11501;DHT22;5807;51.606;7.624;2022-09-12T07:49:20;17.90;99.90
11501;DHT22;5807;51.606;7.624;2022-09-12T07:51:47;17.90;99.90
11501;DHT22;5807;51.606;7.624;2022-09-12T07:54:13;18.00;99.90
11501;DHT22;5807;51.606;7.624;2022-09-12T07:56:40;18.10;99.90
11501;DHT22;5807;51.606;7.624;2022-09-12T07:59:07;18.10;99.90
11501;DHT22;5807;51.606;7.624;2022-09-12T08:01:34;19.80;99.90
11501;DHT22;5807;51.606;7.624;2022-09-12T08:04:03;18.00;99.90
11501;DHT22;5807;51.606;7.624;2022-09-12T08:06:30;17.90;99.90
11501;DHT22;5807;51.606;7.624;2022-09-12T08:09:00;17.90;99.90
11501;DHT22;5807;51.606;7.624;2022-09-12T08:11:28;17.90;99.90
11501;DHT22;5807;51.606;7.624;2022-09-12T08:13:56;17.90;99.90
11501;DHT22;5807;51.606;7.624;2022-09-12T08:16:25;18.00;99.90
11501;DHT22;5807;51.606;7.624;2022-09-12T08:18:51;17.90;99.90
11501;DHT22;5807;51.606;7.624;2022-09-12T08:21:21;18.10;99.90
11501;DHT22;5807;51.606;7.624;2022-09-12T08:23:52;18.00;99.90
11501;DHT22;5807;51.606;7.624;2022-09-12T08:26:19;18.00;99.90
11501;DHT22;5807;51.606;7.624;2022-09-12T08:28:46;17.80;99.90
11501;DHT22;5807;51.606;7.624;2022-09-12T08:31:15;18.00;99.90
11501;DHT22;5807;51.606;7.624;2022-09-12T08:33:42;18.10;99.90
11501;DHT22;5807;51.606;7.624;2022-09-12T08:36:10;18.40;99.90
11501;DHT22;5807;51.606;7.624;2022-09-12T08:38:40;18.70;99.90
11501;DHT22;5807;51.606;7.624;2022-09-12T08:41:12;18.70;99.90
11501;DHT22;5807;51.606;7.624;2022-09-12T08:43:58;18.80;99.90
11501;DHT22;5807;51.606;7.624;2022-09-12T08:46:34;19.00;99.90
11501;DHT22;5807;51.606;7.624;2022-09-12T08:49:02;19.20;99.90
11501;DHT22;5807;51.606;7.624;2022-09-12T08:51:32;19.00;99.90
11501;DHT22;5807;51.606;7.624;2022-09-12T08:54:03;19.10;99.90
11501;DHT22;5807;51.606;7.624;2022-09-12T08:56:35;19.20;99.90
11501;DHT22;5807;51.606;7.624;2022-09-12T09:01:31;19.40;99.90
11501;DHT22;5807;51.606;7.624;2022-09-12T09:04:16;19.50;99.90
11501;DHT22;5807;51.606;7.624;2022-09-12T09:06:57;19.50;99.90
11501;DHT22;5807;51.606;7.624;2022-09-12T09:09:38;19.60;99.90
11501;DHT22;5807;51.606;7.624;2022-09-12T09:12:15;19.60;99.90
11501;DHT22;5807;51.606;7.624;2022-09-12T09:15:10;19.60;99.90
11501;DHT22;5807;51.606;7.624;2022-09-12T09:17:41;19.60;99.90
11501;DHT22;5807;51.606;7.624;2022-09-12T09:20:25;19.70;99.90
11501;DHT22;5807;51.606;7.624;2022-09-12T09:22:57;19.90;99.90
11501;DHT22;5807;51.606;7.624;2022-09-12T09:25:43;20.20;99.90
11501;DHT22;5807;51.606;7.624;2022-09-12T09:28:15;20.50;99.90
11501;DHT22;5807;51.606;7.624;2022-09-12T09:30:44;20.70;99.90
11501;DHT22;5807;51.606;7.624;2022-09-12T09:33:19;20.90;99.90
11501;DHT22;5807;51.606;7.624;2022-09-12T09:35:53;21.00;99.90
11501;DHT22;5807;51.606;7.624;2022-09-12T09:38:28;21.10;99.90
11501;DHT22;5807;51.606;7.624;2022-09-12T09:41:14;21.20;99.90
11501;DHT22;5807;51.606;7.624;2022-09-12T09:43:44;21.60;99.90
11501;DHT22;5807;51.606;7.624;2022-09-12T09:46:11;21.80;99.90
11501;DHT22;5807;51.606;7.624;2022-09-12T09:48:40;21.70;99.90
11501;DHT22;5807;51.606;7.624;2022-09-12T09:51:10;21.50;99.90
11501;DHT22;5807;51.606;7.624;2022-09-12T09:53:43;21.40;99.90
11501;DHT22;5807;51.606;7.624;2022-09-12T09:56:26;21.40;99.90
11501;DHT22;5807;51.606;7.624;2022-09-12T09:58:53;21.50;99.90
11501;DHT22;5807;51.606;7.624;2022-09-12T10:01:20;21.60;99.90
11501;DHT22;5807;51.606;7.624;2022-09-12T10:03:49;21.70;99.90
11501;DHT22;5807;51.606;7.624;2022-09-12T10:06:27;21.70;99.90
11501;DHT22;5807;51.606;7.624;2022-09-12T10:09:05;21.80;99.90
11501;DHT22;5807;51.606;7.624;2022-09-12T10:11:35;22.30;99.90
11501;DHT22;5807;51.606;7.624;2022-09-12T10:14:03;22.70;99.90
11501;DHT22;5807;51.606;7.624;2022-09-12T10:16:31;23.10;99.90
11501;DHT22;5807;51.606;7.624;2022-09-12T10:19:00;23.40;99.90
11501;DHT22;5807;51.606;7.624;2022-09-12T10:21:30;23.50;99.90
11501;DHT22;5807;51.606;7.624;2022-09-12T10:24:17;23.50;99.90
11501;DHT22;5807;51.606;7.624;2022-09-12T10:26:51;23.10;99.90
11501;DHT22;5807;51.606;7.624;2022-09-12T10:29:23;22.80;99.90
11501;DHT22;5807;51.606;7.624;2022-09-12T10:31:53;23.00;99.90
11501;DHT22;5807;51.606;7.624;2022-09-12T10:34:27;23.30;99.90
11501;DHT22;5807;51.606;7.624;2022-09-12T10:37:03;23.40;99.90
11501;DHT22;5807;51.606;7.624;2022-09-12T10:39:31;23.50;99.90
11501;DHT22;5807;51.606;7.624;2022-09-12T10:42:02;23.60;99.90
11501;DHT22;5807;51.606;7.624;2022-09-12T10:44:31;23.60;99.90
11501;DHT22;5807;51.606;7.624;2022-09-12T10:47:00;23.70;99.90
11501;DHT22;5807;51.606;7.624;2022-09-12T10:49:44;23.90;99.90
11501;DHT22;5807;51.606;7.624;2022-09-12T10:52:17;23.90;99.90
11501;DHT22;5807;51.606;7.624;2022-09-12T10:54:45;24.20;99.90
11501;DHT22;5807;51.606;7.624;2022-09-12T11:00:08;24.40;99.90
11501;DHT22;5807;51.606;7.624;2022-09-12T11:02:49;24.60;99.90
11501;DHT22;5807;51.606;7.624;2022-09-12T11:05:24;24.70;99.90
11501;DHT22;5807;51.606;7.624;2022-09-12T11:08:00;24.70;99.90
11501;DHT22;5807;51.606;7.624;2022-09-12T11:10:38;24.80;99.90
11501;DHT22;5807;51.606;7.624;2022-09-12T11:13:20;24.80;99.90
11501;DHT22;5807;51.606;7.624;2022-09-12T11:16:08;24.70;99.10
11501;DHT22;5807;51.606;7.624;2022-09-12T11:18:50;24.80;99.40
11501;DHT22;5807;51.606;7.624;2022-09-12T11:21:33;24.40;99.80
11501;DHT22;5807;51.606;7.624;2022-09-12T11:24:45;24.20;99.20
11501;DHT22;5807;51.606;7.624;2022-09-12T11:27:32;24.40;99.90
11501;DHT22;5807;51.606;7.624;2022-09-12T11:30:04;24.40;98.50
11501;DHT22;5807;51.606;7.624;2022-09-12T11:32:45;24.40;99.90
11501;DHT22;5807;51.606;7.624;2022-09-12T11:35:21;24.60;99.90
11501;DHT22;5807;51.606;7.624;2022-09-12T11:37:58;24.60;99.90
11501;DHT22;5807;51.606;7.624;2022-09-12T11:40:34;24.90;98.90
11501;DHT22;5807;51.606;7.624;2022-09-12T11:43:09;25.20;97.80
11501;DHT22;5807;51.606;7.624;2022-09-12T11:45:41;25.20;97.20
11501;DHT22;5807;51.606;7.624;2022-09-12T11:48:13;25.60;99.20
11501;DHT22;5807;51.606;7.624;2022-09-12T11:50:43;25.50;94.20
11501;DHT22;5807;51.606;7.624;2022-09-12T11:53:14;25.50;96.80
11501;DHT22;5807;51.606;7.624;2022-09-12T11:55:49;25.50;97.90
11501;DHT22;5807;51.606;7.624;2022-09-12T11:58:20;25.40;97.20
11501;DHT22;5807;51.606;7.624;2022-09-12T12:00:53;25.50;96.60
11501;DHT22;5807;51.606;7.624;2022-09-12T12:03:26;25.60;96.50
11501;DHT22;5807;51.606;7.624;2022-09-12T12:06:00;25.70;97.00
11501;DHT22;5807;51.606;7.624;2022-09-12T12:08:30;25.80;95.90
11501;DHT22;5807;51.606;7.624;2022-09-12T12:10:59;26.00;94.10
11501;DHT22;5807;51.606;7.624;2022-09-12T12:13:30;26.10;94.80
11501;DHT22;5807;51.606;7.624;2022-09-12T12:16:03;26.20;91.90
11501;DHT22;5807;51.606;7.624;2022-09-12T12:18:33;26.10;94.00
11501;DHT22;5807;51.606;7.624;2022-09-12T12:21:20;26.00;91.80
11501;DHT22;5807;51.606;7.624;2022-09-12T12:24:02;26.10;92.30
11501;DHT22;5807;51.606;7.624;2022-09-12T12:26:53;26.10;91.90
11501;DHT22;5807;51.606;7.624;2022-09-12T12:29:42;26.20;91.90
11501;DHT22;5807;51.606;7.624;2022-09-12T12:32:24;26.30;91.10
11501;DHT22;5807;51.606;7.624;2022-09-12T12:35:09;26.50;93.40
11501;DHT22;5807;51.606;7.624;2022-09-12T12:37:54;26.20;91.70
11501;DHT22;5807;51.606;7.624;2022-09-12T12:40:25;25.70;89.30
11501;DHT22;5807;51.606;7.624;2022-09-12T12:42:58;25.80;91.00
11501;DHT22;5807;51.606;7.624;2022-09-12T12:45:47;25.60;90.60
11501;DHT22;5807;51.606;7.624;2022-09-12T12:48:15;25.50;92.00
11501;DHT22;5807;51.606;7.624;2022-09-12T12:50:45;25.70;91.50
11501;DHT22;5807;51.606;7.624;2022-09-12T12:53:20;25.80;91.10
11501;DHT22;5807;51.606;7.624;2022-09-12T12:55:50;26.00;89.00
11501;DHT22;5807;51.606;7.624;2022-09-12T12:58:28;26.10;90.40
11501;DHT22;5807;51.606;7.624;2022-09-12T13:01:10;26.30;86.90
11501;DHT22;5807;51.606;7.624;2022-09-12T13:03:40;26.40;88.60
11501;DHT22;5807;51.606;7.624;2022-09-12T13:06:22;26.40;84.10
11501;DHT22;5807;51.606;7.624;2022-09-12T13:08:57;26.20;83.90
11501;DHT22;5807;51.606;7.624;2022-09-12T13:11:31;26.10;85.90
11501;DHT22;5807;51.606;7.624;2022-09-12T13:14:01;26.20;90.40
11501;DHT22;5807;51.606;7.624;2022-09-12T13:16:31;26.30;92.30
11501;DHT22;5807;51.606;7.624;2022-09-12T13:19:02;26.50;90.80
11501;DHT22;5807;51.606;7.624;2022-09-12T13:21:30;26.50;82.90
11501;DHT22;5807;51.606;7.624;2022-09-12T13:24:03;26.60;87.50
11501;DHT22;5807;51.606;7.624;2022-09-12T13:26:39;26.60;84.60
11501;DHT22;5807;51.606;7.624;2022-09-12T13:29:10;26.50;85.60
11501;DHT22;5807;51.606;7.624;2022-09-12T13:31:37;26.50;83.30
11501;DHT22;5807;51.606;7.624;2022-09-12T13:34:06;26.30;83.80
11501;DHT22;5807;51.606;7.624;2022-09-12T13:36:54;26.10;83.20
11501;DHT22;5807;51.606;7.624;2022-09-12T13:39:26;26.10;83.40
11501;DHT22;5807;51.606;7.624;2022-09-12T13:42:07;26.30;88.70
11501;DHT22;5807;51.606;7.624;2022-09-12T13:44:44;26.30;84.20
11501;DHT22;5807;51.606;7.624;2022-09-12T13:47:16;26.40;81.60
11501;DHT22;5807;51.606;7.624;2022-09-12T13:49:45;26.10;81.20
11501;DHT22;5807;51.606;7.624;2022-09-12T13:52:18;25.80;83.00
11501;DHT22;5807;51.606;7.624;2022-09-12T13:54:48;25.20;85.20
11501;DHT22;5807;51.606;7.624;2022-09-12T13:57:27;25.20;85.90
11501;DHT22;5807;51.606;7.624;2022-09-12T13:59:55;25.30;84.30
11501;DHT22;5807;51.606;7.624;2022-09-12T14:02:24;25.40;84.20
11501;DHT22;5807;51.606;7.624;2022-09-12T14:04:53;25.60;87.50
11501;DHT22;5807;51.606;7.624;2022-09-12T14:07:39;25.70;87.20
11501;DHT22;5807;51.606;7.624;2022-09-12T14:10:24;25.70;86.70
11501;DHT22;5807;51.606;7.624;2022-09-12T14:12:53;25.50;87.20
11501;DHT22;5807;51.606;7.624;2022-09-12T14:15:23;25.10;86.00
11501;DHT22;5807;51.606;7.624;2022-09-12T14:17:53;25.00;86.90
11501;DHT22;5807;51.606;7.624;2022-09-12T14:20:21;24.90;85.40
11501;DHT22;5807;51.606;7.624;2022-09-12T14:22:50;25.00;91.40
11501;DHT22;5807;51.606;7.624;2022-09-12T14:25:21;25.20;84.50
11501;DHT22;5807;51.606;7.624;2022-09-12T14:27:51;25.40;84.50
11501;DHT22;5807;51.606;7.624;2022-09-12T14:30:22;25.50;81.60
11501;DHT22;5807;51.606;7.624;2022-09-12T14:33:18;25.50;82.70
11501;DHT22;5807;51.606;7.624;2022-09-12T14:35:47;25.40;86.90
11501;DHT22;5807;51.606;7.624;2022-09-12T14:38:21;25.50;83.90
11501;DHT22;5807;51.606;7.624;2022-09-12T14:40:57;25.30;82.60
11501;DHT22;5807;51.606;7.624;2022-09-12T14:43:26;25.20;83.00
11501;DHT22;5807;51.606;7.624;2022-09-12T14:45:55;25.30;86.30
11501;DHT22;5807;51.606;7.624;2022-09-12T14:48:24;25.20;85.10
11501;DHT22;5807;51.606;7.624;2022-09-12T14:50:52;25.30;85.20
11501;DHT22;5807;51.606;7.624;2022-09-12T14:53:23;25.30;81.70
11501;DHT22;5807;51.606;7.624;2022-09-12T14:55:57;25.20;86.90
11501;DHT22;5807;51.606;7.624;2022-09-12T14:58:25;25.20;87.70
11501;DHT22;5807;51.606;7.624;2022-09-12T15:00:58;25.30;88.70
11501;DHT22;5807;51.606;7.624;2022-09-12T15:03:49;25.30;83.00
11501;DHT22;5807;51.606;7.624;2022-09-12T15:06:28;25.20;84.10
11501;DHT22;5807;51.606;7.624;2022-09-12T15:09:18;25.30;86.10
11501;DHT22;5807;51.606;7.624;2022-09-12T15:11:46;25.20;83.80
11501;DHT22;5807;51.606;7.624;2022-09-12T15:14:26;25.20;84.00
11501;DHT22;5807;51.606;7.624;2022-09-12T15:16:53;25.20;84.00
11501;DHT22;5807;51.606;7.624;2022-09-12T15:19:20;25.40;86.40
11501;DHT22;5807;51.606;7.624;2022-09-12T15:21:47;25.40;84.20
11501;DHT22;5807;51.606;7.624;2022-09-12T15:26:41;25.40;79.40
11501;DHT22;5807;51.606;7.624;2022-09-12T15:31:39;25.50;86.00
11501;DHT22;5807;51.606;7.624;2022-09-12T15:41:41;25.40;87.50
11501;DHT22;5807;51.606;7.624;2022-09-12T15:44:11;25.30;87.00
11501;DHT22;5807;51.606;7.624;2022-09-12T15:49:05;25.30;83.70
11501;DHT22;5807;51.606;7.624;2022-09-12T15:51:33;25.30;88.10
11501;DHT22;5807;51.606;7.624;2022-09-12T15:54:03;25.20;87.90
11501;DHT22;5807;51.606;7.624;2022-09-12T15:58:57;25.00;83.50
11501;DHT22;5807;51.606;7.624;2022-09-12T16:01:26;24.80;81.80
11501;DHT22;5807;51.606;7.624;2022-09-12T16:03:53;24.80;81.40
11501;DHT22;5807;51.606;7.624;2022-09-12T16:06:30;24.70;86.50
11501;DHT22;5807;51.606;7.624;2022-09-12T16:08:58;24.70;86.00
11501;DHT22;5807;51.606;7.624;2022-09-12T16:11:26;24.60;86.20
11501;DHT22;5807;51.606;7.624;2022-09-12T16:13:54;24.50;82.40
11501;DHT22;5807;51.606;7.624;2022-09-12T16:16:21;24.30;85.00
11501;DHT22;5807;51.606;7.624;2022-09-12T16:18:49;24.30;85.90
11501;DHT22;5807;51.606;7.624;2022-09-12T16:21:16;24.20;81.60
11501;DHT22;5807;51.606;7.624;2022-09-12T16:23:43;24.20;80.70
11501;DHT22;5807;51.606;7.624;2022-09-12T16:26:10;24.10;87.00
11501;DHT22;5807;51.606;7.624;2022-09-12T16:28:37;23.90;88.80
11501;DHT22;5807;51.606;7.624;2022-09-12T16:31:06;23.80;84.90
11501;DHT22;5807;51.606;7.624;2022-09-12T16:33:33;23.60;85.40
11501;DHT22;5807;51.606;7.624;2022-09-12T16:36:03;23.40;87.90
11501;DHT22;5807;51.606;7.624;2022-09-12T16:38:30;23.30;89.10
11501;DHT22;5807;51.606;7.624;2022-09-12T16:41:02;23.20;88.80
11501;DHT22;5807;51.606;7.624;2022-09-12T16:43:30;23.10;90.30
11501;DHT22;5807;51.606;7.624;2022-09-12T16:46:01;23.00;91.20
11501;DHT22;5807;51.606;7.624;2022-09-12T16:48:28;23.00;89.90
11501;DHT22;5807;51.606;7.624;2022-09-12T16:50:55;23.00;88.50
11501;DHT22;5807;51.606;7.624;2022-09-12T16:53:24;23.00;89.80
11501;DHT22;5807;51.606;7.624;2022-09-12T16:55:50;23.00;90.10
11501;DHT22;5807;51.606;7.624;2022-09-12T16:58:17;23.00;89.10
11501;DHT22;5807;51.606;7.624;2022-09-12T17:00:45;23.00;88.30
11501;DHT22;5807;51.606;7.624;2022-09-12T17:03:12;23.00;90.10
11501;DHT22;5807;51.606;7.624;2022-09-12T17:05:41;22.80;88.70
11501;DHT22;5807;51.606;7.624;2022-09-12T17:08:08;22.60;90.80
11501;DHT22;5807;51.606;7.624;2022-09-12T17:10:39;22.60;91.70
11501;DHT22;5807;51.606;7.624;2022-09-12T17:13:06;22.50;90.70
11501;DHT22;5807;51.606;7.624;2022-09-12T17:15:35;22.40;91.00
11501;DHT22;5807;51.606;7.624;2022-09-12T17:18:03;22.30;91.90
11501;DHT22;5807;51.606;7.624;2022-09-12T17:22:57;22.00;92.20
11501;DHT22;5807;51.606;7.624;2022-09-12T17:25:24;21.70;92.30
11501;DHT22;5807;51.606;7.624;2022-09-12T17:27:53;21.70;92.70
11501;DHT22;5807;51.606;7.624;2022-09-12T17:30:20;21.60;93.50